sensor_id;sensor_type;location;lat;lon;timestamp;P1;durP1;ratioP1;P2;durP2;ratioP2
5085;SDS011;4715;51.660;7.082;2023-02-14T00:00:19;8.10;;;5.63;;
5085;SDS011;4715;51.660;7.082;2023-02-14T00:02:42;6.40;;;5.80;;
5085;SDS011;4715;51.660;7.082;2023-02-14T00:05:04;9.17;;;6.40;;
5085;SDS011;4715;51.660;7.082;2023-02-14T00:07:26;5.63;;;5.03;;
5085;SDS011;4715;51.660;7.082;2023-02-14T00:09:49;8.83;;;6.13;;
5085;SDS011;4715;51.660;7.082;2023-02-14T00:12:11;4.27;;;3.87;;
5085;SDS011;4715;51.660;7.082;2023-02-14T00:14:33;5.63;;;5.13;;
5085;SDS011;4715;51.660;7.082;2023-02-14T00:17:12;7.57;;;5.77;;
5085;SDS011;4715;51.660;7.082;2023-02-14T00:19:34;7.73;;;5.30;;
5085;SDS011;4715;51.660;7.082;2023-02-14T00:21:56;6.53;;;5.13;;
5085;SDS011;4715;51.660;7.082;2023-02-14T00:24:18;4.70;;;4.30;;
5085;SDS011;4715;51.660;7.082;2023-02-14T00:26:43;5.80;;;4.97;;
5085;SDS011;4715;51.660;7.082;2023-02-14T00:29:05;7.07;;;5.83;;
5085;SDS011;4715;51.660;7.082;2023-02-14T00:31:28;5.77;;;5.20;;
5085;SDS011;4715;51.660;7.082;2023-02-14T00:33:50;5.30;;;4.80;;
5085;SDS011;4715;51.660;7.082;2023-02-14T00:36:11;7.60;;;6.90;;
5085;SDS011;4715;51.660;7.082;2023-02-14T00:38:33;4.73;;;4.30;;
5085;SDS011;4715;51.660;7.082;2023-02-14T00:40:55;7.80;;;5.77;;
5085;SDS011;4715;51.660;7.082;2023-02-14T00:43:18;6.10;;;5.50;;
5085;SDS011;4715;51.660;7.082;2023-02-14T00:45:40;8.13;;;6.47;;
5085;SDS011;4715;51.660;7.082;2023-02-14T00:48:03;8.57;;;6.17;;
5085;SDS011;4715;51.660;7.082;2023-02-14T00:50:25;5.93;;;5.37;;
5085;SDS011;4715;51.660;7.082;2023-02-14T00:52:46;7.13;;;5.63;;
5085;SDS011;4715;51.660;7.082;2023-02-14T00:55:08;7.97;;;6.10;;
5085;SDS011;4715;51.660;7.082;2023-02-14T00:57:33;7.90;;;6.73;;
5085;SDS011;4715;51.660;7.082;2023-02-14T00:59:56;5.93;;;5.00;;
5085;SDS011;4715;51.660;7.082;2023-02-14T01:02:18;5.10;;;4.70;;
5085;SDS011;4715;51.660;7.082;2023-02-14T01:04:40;6.63;;;6.03;;
5085;SDS011;4715;51.660;7.082;2023-02-14T01:07:02;5.73;;;4.77;;
5085;SDS011;4715;51.660;7.082;2023-02-14T01:09:24;7.40;;;5.50;;
5085;SDS011;4715;51.660;7.082;2023-02-14T01:11:45;7.30;;;5.50;;
5085;SDS011;4715;51.660;7.082;2023-02-14T01:14:07;5.23;;;4.73;;
5085;SDS011;4715;51.660;7.082;2023-02-14T01:16:30;7.83;;;5.73;;
5085;SDS011;4715;51.660;7.082;2023-02-14T01:18:52;5.60;;;5.10;;
5085;SDS011;4715;51.660;7.082;2023-02-14T01:21:16;8.27;;;6.07;;
5085;SDS011;4715;51.660;7.082;2023-02-14T01:23:39;5.73;;;5.23;;
5085;SDS011;4715;51.660;7.082;2023-02-14T01:26:03;5.37;;;4.97;;
5085;SDS011;4715;51.660;7.082;2023-02-14T01:28:25;5.13;;;4.63;;
5085;SDS011;4715;51.660;7.082;2023-02-14T01:30:47;6.00;;;5.20;;
5085;SDS011;4715;51.660;7.082;2023-02-14T01:33:12;7.50;;;5.80;;
5085;SDS011;4715;51.660;7.082;2023-02-14T01:35:35;5.73;;;5.20;;
5085;SDS011;4715;51.660;7.082;2023-02-14T01:37:58;5.30;;;4.87;;
5085;SDS011;4715;51.660;7.082;2023-02-14T01:40:20;5.10;;;4.60;;
5085;SDS011;4715;51.660;7.082;2023-02-14T01:42:42;5.87;;;5.37;;
5085;SDS011;4715;51.660;7.082;2023-02-14T01:45:04;6.13;;;4.73;;
5085;SDS011;4715;51.660;7.082;2023-02-14T01:47:29;4.90;;;4.40;;
5085;SDS011;4715;51.660;7.082;2023-02-14T01:49:56;5.43;;;4.93;;
5085;SDS011;4715;51.660;7.082;2023-02-14T01:52:22;5.23;;;4.70;;
5085;SDS011;4715;51.660;7.082;2023-02-14T01:54:48;5.80;;;5.20;;
5085;SDS011;4715;51.660;7.082;2023-02-14T01:57:14;7.37;;;5.17;;
5085;SDS011;4715;51.660;7.082;2023-02-14T01:59:39;5.83;;;5.27;;
5085;SDS011;4715;51.660;7.082;2023-02-14T02:02:05;6.17;;;5.57;;
5085;SDS011;4715;51.660;7.082;2023-02-14T02:04:28;7.60;;;5.37;;
5085;SDS011;4715;51.660;7.082;2023-02-14T02:06:56;6.70;;;5.30;;
5085;SDS011;4715;51.660;7.082;2023-02-14T02:09:20;6.17;;;5.37;;
5085;SDS011;4715;51.660;7.082;2023-02-14T02:11:45;10.13;;;6.77;;
5085;SDS011;4715;51.660;7.082;2023-02-14T02:14:08;6.80;;;5.57;;
5085;SDS011;4715;51.660;7.082;2023-02-14T02:16:38;5.37;;;4.87;;
5085;SDS011;4715;51.660;7.082;2023-02-14T02:19:18;6.80;;;4.63;;
5085;SDS011;4715;51.660;7.082;2023-02-14T02:22:11;4.97;;;4.57;;
5085;SDS011;4715;51.660;7.082;2023-02-14T02:25:00;4.83;;;4.40;;
5085;SDS011;4715;51.660;7.082;2023-02-14T02:27:39;4.73;;;4.33;;
5085;SDS011;4715;51.660;7.082;2023-02-14T02:30:33;6.97;;;5.37;;
5085;SDS011;4715;51.660;7.082;2023-02-14T02:35:58;6.23;;;4.90;;
5085;SDS011;4715;51.660;7.082;2023-02-14T02:38:32;4.70;;;4.30;;
5085;SDS011;4715;51.660;7.082;2023-02-14T02:41:08;5.70;;;4.60;;
5085;SDS011;4715;51.660;7.082;2023-02-14T02:43:41;5.27;;;4.80;;
5085;SDS011;4715;51.660;7.082;2023-02-14T02:46:10;5.47;;;4.97;;
5085;SDS011;4715;51.660;7.082;2023-02-14T02:49:00;4.67;;;4.20;;
5085;SDS011;4715;51.660;7.082;2023-02-14T02:51:31;5.10;;;4.60;;
5085;SDS011;4715;51.660;7.082;2023-02-14T02:54:15;5.50;;;5.00;;
5085;SDS011;4715;51.660;7.082;2023-02-14T02:56:45;5.67;;;5.13;;
5085;SDS011;4715;51.660;7.082;2023-02-14T02:59:15;4.80;;;4.33;;
5085;SDS011;4715;51.660;7.082;2023-02-14T03:01:40;6.10;;;5.50;;
5085;SDS011;4715;51.660;7.082;2023-02-14T03:04:06;5.43;;;4.73;;
5085;SDS011;4715;51.660;7.082;2023-02-14T03:06:51;5.97;;;5.33;;
5085;SDS011;4715;51.660;7.082;2023-02-14T03:12:10;8.40;;;5.27;;
5085;SDS011;4715;51.660;7.082;2023-02-14T03:14:42;5.47;;;4.50;;
5085;SDS011;4715;51.660;7.082;2023-02-14T03:17:11;6.53;;;5.37;;
5085;SDS011;4715;51.660;7.082;2023-02-14T03:19:46;6.87;;;6.17;;
5085;SDS011;4715;51.660;7.082;2023-02-14T03:22:36;5.67;;;4.90;;
5085;SDS011;4715;51.660;7.082;2023-02-14T03:25:07;5.37;;;4.97;;
5085;SDS011;4715;51.660;7.082;2023-02-14T03:27:37;5.87;;;4.97;;
5085;SDS011;4715;51.660;7.082;2023-02-14T03:30:06;7.00;;;5.07;;
5085;SDS011;4715;51.660;7.082;2023-02-14T03:32:37;5.93;;;5.33;;
5085;SDS011;4715;51.660;7.082;2023-02-14T03:35:06;5.43;;;4.83;;
5085;SDS011;4715;51.660;7.082;2023-02-14T03:37:38;5.57;;;5.00;;
5085;SDS011;4715;51.660;7.082;2023-02-14T03:40:05;6.20;;;5.50;;
5085;SDS011;4715;51.660;7.082;2023-02-14T03:42:31;6.47;;;5.33;;
5085;SDS011;4715;51.660;7.082;2023-02-14T03:44:56;5.23;;;4.80;;
5085;SDS011;4715;51.660;7.082;2023-02-14T03:47:21;5.50;;;5.00;;
5085;SDS011;4715;51.660;7.082;2023-02-14T03:49:46;5.23;;;4.70;;
5085;SDS011;4715;51.660;7.082;2023-02-14T03:52:11;5.17;;;4.00;;
5085;SDS011;4715;51.660;7.082;2023-02-14T03:54:36;4.97;;;4.50;;
5085;SDS011;4715;51.660;7.082;2023-02-14T03:57:03;5.93;;;5.23;;
5085;SDS011;4715;51.660;7.082;2023-02-14T03:59:32;6.23;;;5.03;;
5085;SDS011;4715;51.660;7.082;2023-02-14T04:01:56;4.67;;;4.23;;
5085;SDS011;4715;51.660;7.082;2023-02-14T04:04:23;5.33;;;4.83;;
5085;SDS011;4715;51.660;7.082;2023-02-14T04:06:48;5.83;;;5.00;;
5085;SDS011;4715;51.660;7.082;2023-02-14T04:09:10;4.40;;;4.00;;
5085;SDS011;4715;51.660;7.082;2023-02-14T04:11:33;5.87;;;5.37;;
5085;SDS011;4715;51.660;7.082;2023-02-14T04:13:58;5.40;;;5.00;;
5085;SDS011;4715;51.660;7.082;2023-02-14T04:16:21;6.97;;;4.80;;
5085;SDS011;4715;51.660;7.082;2023-02-14T04:18:42;6.57;;;4.87;;
5085;SDS011;4715;51.660;7.082;2023-02-14T04:21:22;4.77;;;4.30;;
5085;SDS011;4715;51.660;7.082;2023-02-14T04:23:44;7.00;;;4.93;;
5085;SDS011;4715;51.660;7.082;2023-02-14T04:26:06;4.57;;;4.17;;
5085;SDS011;4715;51.660;7.082;2023-02-14T04:28:29;4.83;;;4.43;;
5085;SDS011;4715;51.660;7.082;2023-02-14T04:30:51;4.53;;;4.10;;
5085;SDS011;4715;51.660;7.082;2023-02-14T04:33:13;5.20;;;4.67;;
5085;SDS011;4715;51.660;7.082;2023-02-14T04:35:34;6.43;;;5.40;;
5085;SDS011;4715;51.660;7.082;2023-02-14T04:37:56;6.17;;;5.10;;
5085;SDS011;4715;51.660;7.082;2023-02-14T04:40:18;6.43;;;5.40;;
5085;SDS011;4715;51.660;7.082;2023-02-14T04:42:40;7.20;;;5.63;;
5085;SDS011;4715;51.660;7.082;2023-02-14T04:45:04;6.33;;;5.83;;
5085;SDS011;4715;51.660;7.082;2023-02-14T04:47:26;6.87;;;5.50;;
5085;SDS011;4715;51.660;7.082;2023-02-14T04:49:48;8.10;;;4.70;;
5085;SDS011;4715;51.660;7.082;2023-02-14T04:52:09;6.73;;;5.73;;
5085;SDS011;4715;51.660;7.082;2023-02-14T04:54:32;6.13;;;5.53;;
5085;SDS011;4715;51.660;7.082;2023-02-14T04:56:53;7.53;;;5.20;;
5085;SDS011;4715;51.660;7.082;2023-02-14T04:59:15;6.03;;;5.00;;
5085;SDS011;4715;51.660;7.082;2023-02-14T05:01:39;4.73;;;4.20;;
5085;SDS011;4715;51.660;7.082;2023-02-14T05:04:01;5.77;;;5.20;;
5085;SDS011;4715;51.660;7.082;2023-02-14T05:06:23;4.53;;;4.10;;
5085;SDS011;4715;51.660;7.082;2023-02-14T05:08:45;7.60;;;5.10;;
5085;SDS011;4715;51.660;7.082;2023-02-14T05:11:06;5.67;;;4.10;;
5085;SDS011;4715;51.660;7.082;2023-02-14T05:13:28;5.57;;;4.50;;
5085;SDS011;4715;51.660;7.082;2023-02-14T05:15:50;5.37;;;4.73;;
5085;SDS011;4715;51.660;7.082;2023-02-14T05:18:14;5.33;;;4.80;;
5085;SDS011;4715;51.660;7.082;2023-02-14T05:20:35;5.33;;;4.83;;
5085;SDS011;4715;51.660;7.082;2023-02-14T05:22:57;5.17;;;4.67;;
5085;SDS011;4715;51.660;7.082;2023-02-14T05:25:22;5.67;;;5.17;;
5085;SDS011;4715;51.660;7.082;2023-02-14T05:27:44;6.00;;;5.23;;
5085;SDS011;4715;51.660;7.082;2023-02-14T05:30:07;5.30;;;4.80;;
5085;SDS011;4715;51.660;7.082;2023-02-14T05:32:30;5.37;;;4.93;;
5085;SDS011;4715;51.660;7.082;2023-02-14T05:34:53;7.73;;;5.63;;
5085;SDS011;4715;51.660;7.082;2023-02-14T05:37:15;6.10;;;5.50;;
5085;SDS011;4715;51.660;7.082;2023-02-14T05:39:37;5.20;;;4.70;;
5085;SDS011;4715;51.660;7.082;2023-02-14T05:41:59;6.10;;;5.47;;
5085;SDS011;4715;51.660;7.082;2023-02-14T05:44:21;6.40;;;5.00;;
5085;SDS011;4715;51.660;7.082;2023-02-14T05:46:43;5.20;;;4.70;;
5085;SDS011;4715;51.660;7.082;2023-02-14T05:49:04;5.40;;;4.90;;
5085;SDS011;4715;51.660;7.082;2023-02-14T05:51:28;8.13;;;5.57;;
5085;SDS011;4715;51.660;7.082;2023-02-14T05:53:49;5.10;;;4.67;;
5085;SDS011;4715;51.660;7.082;2023-02-14T05:56:11;5.53;;;5.03;;
5085;SDS011;4715;51.660;7.082;2023-02-14T05:58:33;8.47;;;5.57;;
5085;SDS011;4715;51.660;7.082;2023-02-14T06:00:55;6.43;;;5.40;;
5085;SDS011;4715;51.660;7.082;2023-02-14T06:03:17;4.77;;;4.30;;
5085;SDS011;4715;51.660;7.082;2023-02-14T06:05:39;7.80;;;5.23;;
5085;SDS011;4715;51.660;7.082;2023-02-14T06:08:06;5.90;;;5.30;;
5085;SDS011;4715;51.660;7.082;2023-02-14T06:10:29;6.23;;;5.73;;
5085;SDS011;4715;51.660;7.082;2023-02-14T06:12:51;5.40;;;4.90;;
5085;SDS011;4715;51.660;7.082;2023-02-14T06:15:13;6.00;;;4.63;;
5085;SDS011;4715;51.660;7.082;2023-02-14T06:17:36;5.97;;;5.07;;
5085;SDS011;4715;51.660;7.082;2023-02-14T06:19:58;5.40;;;4.70;;
5085;SDS011;4715;51.660;7.082;2023-02-14T06:22:20;6.80;;;4.80;;
5085;SDS011;4715;51.660;7.082;2023-02-14T06:24:44;6.33;;;5.10;;
5085;SDS011;4715;51.660;7.082;2023-02-14T06:27:20;7.00;;;5.13;;
5085;SDS011;4715;51.660;7.082;2023-02-14T06:29:42;6.67;;;5.50;;
5085;SDS011;4715;51.660;7.082;2023-02-14T06:32:05;7.87;;;5.90;;
5085;SDS011;4715;51.660;7.082;2023-02-14T06:34:27;4.37;;;4.00;;
5085;SDS011;4715;51.660;7.082;2023-02-14T06:36:50;6.00;;;4.93;;
5085;SDS011;4715;51.660;7.082;2023-02-14T06:39:15;5.97;;;4.77;;
5085;SDS011;4715;51.660;7.082;2023-02-14T06:41:38;7.03;;;5.60;;
5085;SDS011;4715;51.660;7.082;2023-02-14T06:44:00;5.83;;;4.77;;
5085;SDS011;4715;51.660;7.082;2023-02-14T06:46:22;5.87;;;5.27;;
5085;SDS011;4715;51.660;7.082;2023-02-14T06:48:45;6.33;;;5.03;;
5085;SDS011;4715;51.660;7.082;2023-02-14T06:51:07;8.40;;;5.27;;
5085;SDS011;4715;51.660;7.082;2023-02-14T06:53:28;6.20;;;5.50;;
5085;SDS011;4715;51.660;7.082;2023-02-14T06:55:50;6.30;;;5.70;;
5085;SDS011;4715;51.660;7.082;2023-02-14T06:58:13;5.23;;;4.60;;
5085;SDS011;4715;51.660;7.082;2023-02-14T07:00:35;7.00;;;5.60;;
5085;SDS011;4715;51.660;7.082;2023-02-14T07:02:58;6.03;;;5.43;;
5085;SDS011;4715;51.660;7.082;2023-02-14T07:05:20;6.70;;;6.00;;
5085;SDS011;4715;51.660;7.082;2023-02-14T07:07:42;8.60;;;6.30;;
5085;SDS011;4715;51.660;7.082;2023-02-14T07:10:04;8.90;;;6.17;;
5085;SDS011;4715;51.660;7.082;2023-02-14T07:12:27;11.10;;;7.07;;
5085;SDS011;4715;51.660;7.082;2023-02-14T07:14:50;9.53;;;6.67;;
5085;SDS011;4715;51.660;7.082;2023-02-14T07:17:13;8.17;;;6.83;;
5085;SDS011;4715;51.660;7.082;2023-02-14T07:19:35;10.93;;;6.63;;
5085;SDS011;4715;51.660;7.082;2023-02-14T07:21:57;10.20;;;6.97;;
5085;SDS011;4715;51.660;7.082;2023-02-14T07:24:18;11.67;;;7.57;;
5085;SDS011;4715;51.660;7.082;2023-02-14T07:26:40;11.20;;;7.07;;
5085;SDS011;4715;51.660;7.082;2023-02-14T07:29:02;10.50;;;7.90;;
5085;SDS011;4715;51.660;7.082;2023-02-14T07:31:25;14.17;;;7.80;;
5085;SDS011;4715;51.660;7.082;2023-02-14T07:33:47;10.97;;;8.40;;
5085;SDS011;4715;51.660;7.082;2023-02-14T07:36:09;10.73;;;7.43;;
5085;SDS011;4715;51.660;7.082;2023-02-14T07:38:31;11.23;;;7.30;;
5085;SDS011;4715;51.660;7.082;2023-02-14T07:40:53;13.77;;;8.63;;
5085;SDS011;4715;51.660;7.082;2023-02-14T07:43:15;12.40;;;8.23;;
5085;SDS011;4715;51.660;7.082;2023-02-14T07:45:37;10.83;;;7.40;;
5085;SDS011;4715;51.660;7.082;2023-02-14T07:48:00;10.53;;;7.07;;
5085;SDS011;4715;51.660;7.082;2023-02-14T07:50:22;10.13;;;7.57;;
5085;SDS011;4715;51.660;7.082;2023-02-14T07:52:44;12.43;;;7.90;;
5085;SDS011;4715;51.660;7.082;2023-02-14T07:55:06;14.87;;;8.80;;
5085;SDS011;4715;51.660;7.082;2023-02-14T07:57:29;9.47;;;6.80;;
5085;SDS011;4715;51.660;7.082;2023-02-14T07:59:51;6.83;;;6.23;;
5085;SDS011;4715;51.660;7.082;2023-02-14T08:02:13;10.60;;;7.50;;
5085;SDS011;4715;51.660;7.082;2023-02-14T08:04:36;7.83;;;6.70;;
5085;SDS011;4715;51.660;7.082;2023-02-14T08:06:58;11.23;;;8.00;;
5085;SDS011;4715;51.660;7.082;2023-02-14T08:09:20;10.60;;;7.67;;
5085;SDS011;4715;51.660;7.082;2023-02-14T08:11:44;7.27;;;6.33;;
5085;SDS011;4715;51.660;7.082;2023-02-14T08:14:24;11.80;;;7.33;;
5085;SDS011;4715;51.660;7.082;2023-02-14T08:16:45;12.90;;;7.43;;
5085;SDS011;4715;51.660;7.082;2023-02-14T08:19:07;10.57;;;7.70;;
5085;SDS011;4715;51.660;7.082;2023-02-14T08:21:30;10.20;;;5.97;;
5085;SDS011;4715;51.660;7.082;2023-02-14T08:23:52;6.37;;;5.47;;
5085;SDS011;4715;51.660;7.082;2023-02-14T08:26:14;7.93;;;6.10;;
5085;SDS011;4715;51.660;7.082;2023-02-14T08:28:36;6.97;;;5.47;;
5085;SDS011;4715;51.660;7.082;2023-02-14T08:30:58;12.63;;;7.10;;
5085;SDS011;4715;51.660;7.082;2023-02-14T08:33:20;7.53;;;5.83;;
5085;SDS011;4715;51.660;7.082;2023-02-14T08:35:42;9.40;;;6.20;;
5085;SDS011;4715;51.660;7.082;2023-02-14T08:38:05;11.47;;;6.27;;
5085;SDS011;4715;51.660;7.082;2023-02-14T08:40:27;9.50;;;7.30;;
5085;SDS011;4715;51.660;7.082;2023-02-14T08:42:49;7.90;;;6.13;;
5085;SDS011;4715;51.660;7.082;2023-02-14T08:45:11;8.23;;;6.10;;
5085;SDS011;4715;51.660;7.082;2023-02-14T08:47:33;10.17;;;6.70;;
5085;SDS011;4715;51.660;7.082;2023-02-14T08:49:57;7.07;;;6.13;;
5085;SDS011;4715;51.660;7.082;2023-02-14T08:52:19;9.80;;;6.13;;
5085;SDS011;4715;51.660;7.082;2023-02-14T08:54:42;9.53;;;5.83;;
5085;SDS011;4715;51.660;7.082;2023-02-14T08:57:04;9.57;;;6.40;;
5085;SDS011;4715;51.660;7.082;2023-02-14T08:59:26;10.67;;;6.50;;
5085;SDS011;4715;51.660;7.082;2023-02-14T09:01:47;6.83;;;6.13;;
5085;SDS011;4715;51.660;7.082;2023-02-14T09:04:09;8.87;;;5.73;;
5085;SDS011;4715;51.660;7.082;2023-02-14T09:06:31;7.47;;;6.00;;
5085;SDS011;4715;51.660;7.082;2023-02-14T09:08:53;6.77;;;5.70;;
5085;SDS011;4715;51.660;7.082;2023-02-14T09:11:17;6.77;;;5.57;;
5085;SDS011;4715;51.660;7.082;2023-02-14T09:13:41;7.27;;;5.73;;
5085;SDS011;4715;51.660;7.082;2023-02-14T09:16:03;7.50;;;5.37;;
5085;SDS011;4715;51.660;7.082;2023-02-14T09:18:26;6.70;;;5.47;;
5085;SDS011;4715;51.660;7.082;2023-02-14T09:20:47;7.43;;;6.10;;
5085;SDS011;4715;51.660;7.082;2023-02-14T09:23:09;8.87;;;6.73;;
5085;SDS011;4715;51.660;7.082;2023-02-14T09:25:31;11.83;;;8.10;;
5085;SDS011;4715;51.660;7.082;2023-02-14T09:27:54;11.47;;;7.63;;
5085;SDS011;4715;51.660;7.082;2023-02-14T09:30:17;11.40;;;7.80;;
5085;SDS011;4715;51.660;7.082;2023-02-14T09:32:41;15.30;;;10.20;;
5085;SDS011;4715;51.660;7.082;2023-02-14T09:35:03;17.43;;;12.00;;
5085;SDS011;4715;51.660;7.082;2023-02-14T09:37:26;20.80;;;13.10;;
5085;SDS011;4715;51.660;7.082;2023-02-14T09:40:06;19.60;;;12.37;;
5085;SDS011;4715;51.660;7.082;2023-02-14T09:45:16;13.43;;;10.00;;
5085;SDS011;4715;51.660;7.082;2023-02-14T09:47:43;14.97;;;10.30;;
5085;SDS011;4715;51.660;7.082;2023-02-14T09:50:12;16.43;;;10.23;;
5085;SDS011;4715;51.660;7.082;2023-02-14T09:52:38;18.50;;;11.23;;
5085;SDS011;4715;51.660;7.082;2023-02-14T09:55:01;11.80;;;9.50;;
5085;SDS011;4715;51.660;7.082;2023-02-14T09:57:25;11.27;;;8.33;;
5085;SDS011;4715;51.660;7.082;2023-02-14T09:59:58;12.80;;;9.17;;
5085;SDS011;4715;51.660;7.082;2023-02-14T10:02:39;16.93;;;12.40;;
5085;SDS011;4715;51.660;7.082;2023-02-14T10:05:14;20.10;;;12.23;;
5085;SDS011;4715;51.660;7.082;2023-02-14T10:07:43;17.97;;;10.33;;
5085;SDS011;4715;51.660;7.082;2023-02-14T10:10:18;16.43;;;10.83;;
5085;SDS011;4715;51.660;7.082;2023-02-14T10:12:49;14.13;;;8.90;;
5085;SDS011;4715;51.660;7.082;2023-02-14T10:15:14;21.03;;;9.47;;
5085;SDS011;4715;51.660;7.082;2023-02-14T10:17:45;15.37;;;9.73;;
5085;SDS011;4715;51.660;7.082;2023-02-14T10:20:19;14.50;;;8.93;;
5085;SDS011;4715;51.660;7.082;2023-02-14T10:23:03;22.63;;;13.57;;
5085;SDS011;4715;51.660;7.082;2023-02-14T10:25:28;15.93;;;11.90;;
5085;SDS011;4715;51.660;7.082;2023-02-14T10:27:57;19.97;;;11.40;;
5085;SDS011;4715;51.660;7.082;2023-02-14T10:30:21;17.43;;;12.13;;
5085;SDS011;4715;51.660;7.082;2023-02-14T10:32:45;16.97;;;10.90;;
5085;SDS011;4715;51.660;7.082;2023-02-14T10:35:10;16.00;;;10.40;;
5085;SDS011;4715;51.660;7.082;2023-02-14T10:37:46;13.90;;;9.03;;
5085;SDS011;4715;51.660;7.082;2023-02-14T10:40:22;14.87;;;8.83;;
5085;SDS011;4715;51.660;7.082;2023-02-14T10:43:00;12.83;;;9.67;;
5085;SDS011;4715;51.660;7.082;2023-02-14T10:45:32;18.83;;;12.30;;
5085;SDS011;4715;51.660;7.082;2023-02-14T10:48:02;18.87;;;12.07;;
5085;SDS011;4715;51.660;7.082;2023-02-14T10:50:34;14.97;;;10.40;;
5085;SDS011;4715;51.660;7.082;2023-02-14T10:53:03;15.50;;;10.27;;
5085;SDS011;4715;51.660;7.082;2023-02-14T10:55:36;18.57;;;12.10;;
5085;SDS011;4715;51.660;7.082;2023-02-14T10:58:03;21.07;;;11.80;;
5085;SDS011;4715;51.660;7.082;2023-02-14T11:00:29;22.40;;;13.37;;
5085;SDS011;4715;51.660;7.082;2023-02-14T11:02:55;19.87;;;11.60;;
5085;SDS011;4715;51.660;7.082;2023-02-14T11:05:23;15.30;;;10.60;;
5085;SDS011;4715;51.660;7.082;2023-02-14T11:07:48;14.30;;;10.20;;
5085;SDS011;4715;51.660;7.082;2023-02-14T11:10:11;14.30;;;9.27;;
5085;SDS011;4715;51.660;7.082;2023-02-14T11:12:35;14.20;;;9.67;;
5085;SDS011;4715;51.660;7.082;2023-02-14T11:15:07;15.80;;;11.37;;
5085;SDS011;4715;51.660;7.082;2023-02-14T11:17:31;17.00;;;11.37;;
5085;SDS011;4715;51.660;7.082;2023-02-14T11:19:55;17.30;;;11.07;;
5085;SDS011;4715;51.660;7.082;2023-02-14T11:22:28;14.80;;;9.87;;
5085;SDS011;4715;51.660;7.082;2023-02-14T11:24:51;11.70;;;8.67;;
5085;SDS011;4715;51.660;7.082;2023-02-14T11:27:23;13.23;;;9.20;;
5085;SDS011;4715;51.660;7.082;2023-02-14T11:29:46;14.50;;;9.83;;
5085;SDS011;4715;51.660;7.082;2023-02-14T11:32:12;13.20;;;9.37;;
5085;SDS011;4715;51.660;7.082;2023-02-14T11:34:36;10.77;;;8.43;;
5085;SDS011;4715;51.660;7.082;2023-02-14T11:37:01;8.90;;;7.43;;
5085;SDS011;4715;51.660;7.082;2023-02-14T11:39:27;9.07;;;7.27;;
5085;SDS011;4715;51.660;7.082;2023-02-14T11:41:51;8.23;;;6.80;;
5085;SDS011;4715;51.660;7.082;2023-02-14T11:44:16;11.33;;;7.67;;
5085;SDS011;4715;51.660;7.082;2023-02-14T11:46:41;12.97;;;7.40;;
5085;SDS011;4715;51.660;7.082;2023-02-14T11:49:04;17.20;;;11.10;;
5085;SDS011;4715;51.660;7.082;2023-02-14T11:51:32;15.17;;;10.80;;
5085;SDS011;4715;51.660;7.082;2023-02-14T11:53:56;10.63;;;9.13;;
5085;SDS011;4715;51.660;7.082;2023-02-14T11:56:25;15.80;;;10.53;;
5085;SDS011;4715;51.660;7.082;2023-02-14T11:59:06;13.73;;;9.60;;
5085;SDS011;4715;51.660;7.082;2023-02-14T12:01:28;13.73;;;10.40;;
5085;SDS011;4715;51.660;7.082;2023-02-14T12:03:53;15.53;;;10.53;;
5085;SDS011;4715;51.660;7.082;2023-02-14T12:06:21;15.10;;;10.70;;
5085;SDS011;4715;51.660;7.082;2023-02-14T12:08:44;10.97;;;9.60;;
5085;SDS011;4715;51.660;7.082;2023-02-14T12:11:17;17.80;;;12.27;;
5085;SDS011;4715;51.660;7.082;2023-02-14T12:13:45;15.33;;;10.87;;
5085;SDS011;4715;51.660;7.082;2023-02-14T12:16:16;14.00;;;10.03;;
5085;SDS011;4715;51.660;7.082;2023-02-14T12:18:45;12.07;;;9.80;;
5085;SDS011;4715;51.660;7.082;2023-02-14T12:21:19;14.70;;;9.80;;
5085;SDS011;4715;51.660;7.082;2023-02-14T12:23:49;11.70;;;9.53;;
5085;SDS011;4715;51.660;7.082;2023-02-14T12:26:21;14.60;;;10.20;;
5085;SDS011;4715;51.660;7.082;2023-02-14T12:28:50;13.73;;;9.80;;
5085;SDS011;4715;51.660;7.082;2023-02-14T12:31:18;18.90;;;9.40;;
5085;SDS011;4715;51.660;7.082;2023-02-14T12:33:40;14.53;;;9.67;;
5085;SDS011;4715;51.660;7.082;2023-02-14T12:36:03;10.90;;;8.27;;
5085;SDS011;4715;51.660;7.082;2023-02-14T12:38:33;13.50;;;9.97;;
5085;SDS011;4715;51.660;7.082;2023-02-14T12:41:07;9.67;;;8.10;;
5085;SDS011;4715;51.660;7.082;2023-02-14T12:43:45;12.33;;;8.67;;
5085;SDS011;4715;51.660;7.082;2023-02-14T12:51:51;15.83;;;8.80;;
5085;SDS011;4715;51.660;7.082;2023-02-14T12:54:25;12.03;;;9.33;;
5085;SDS011;4715;51.660;7.082;2023-02-14T12:57:02;9.50;;;7.83;;
5085;SDS011;4715;51.660;7.082;2023-02-14T12:59:31;10.77;;;7.77;;
5085;SDS011;4715;51.660;7.082;2023-02-14T13:02:09;10.60;;;8.33;;
5085;SDS011;4715;51.660;7.082;2023-02-14T13:04:57;9.73;;;7.87;;
5085;SDS011;4715;51.660;7.082;2023-02-14T13:07:25;17.70;;;8.47;;
5085;SDS011;4715;51.660;7.082;2023-02-14T13:09:58;8.90;;;7.77;;
5085;SDS011;4715;51.660;7.082;2023-02-14T13:12:32;10.20;;;8.40;;
5085;SDS011;4715;51.660;7.082;2023-02-14T13:15:02;11.07;;;8.47;;
5085;SDS011;4715;51.660;7.082;2023-02-14T13:17:39;8.70;;;7.13;;
5085;SDS011;4715;51.660;7.082;2023-02-14T13:20:14;9.23;;;5.93;;
5085;SDS011;4715;51.660;7.082;2023-02-14T13:22:59;7.50;;;6.20;;
5085;SDS011;4715;51.660;7.082;2023-02-14T13:25:25;14.13;;;8.67;;
5085;SDS011;4715;51.660;7.082;2023-02-14T13:27:52;7.80;;;6.63;;
5085;SDS011;4715;51.660;7.082;2023-02-14T13:30:16;9.30;;;7.83;;
5085;SDS011;4715;51.660;7.082;2023-02-14T13:32:47;9.00;;;8.00;;
5085;SDS011;4715;51.660;7.082;2023-02-14T13:35:13;8.33;;;7.20;;
5085;SDS011;4715;51.660;7.082;2023-02-14T13:37:37;7.63;;;6.20;;
5085;SDS011;4715;51.660;7.082;2023-02-14T13:40:00;8.60;;;6.83;;
5085;SDS011;4715;51.660;7.082;2023-02-14T13:45:14;7.00;;;6.13;;
5085;SDS011;4715;51.660;7.082;2023-02-14T13:48:25;7.10;;;6.17;;
5085;SDS011;4715;51.660;7.082;2023-02-14T13:50:49;11.17;;;5.83;;
5085;SDS011;4715;51.660;7.082;2023-02-14T13:53:15;7.70;;;6.00;;
5085;SDS011;4715;51.660;7.082;2023-02-14T13:55:53;6.60;;;5.10;;
5085;SDS011;4715;51.660;7.082;2023-02-14T13:58:16;7.63;;;6.67;;
5085;SDS011;4715;51.660;7.082;2023-02-14T14:00:41;7.60;;;6.80;;
5085;SDS011;4715;51.660;7.082;2023-02-14T14:03:06;11.90;;;6.13;;
5085;SDS011;4715;51.660;7.082;2023-02-14T14:08:35;9.83;;;8.03;;
5085;SDS011;4715;51.660;7.082;2023-02-14T14:11:03;13.53;;;9.33;;
5085;SDS011;4715;51.660;7.082;2023-02-14T14:16:25;10.10;;;7.53;;
5085;SDS011;4715;51.660;7.082;2023-02-14T14:18:49;8.50;;;7.27;;
5085;SDS011;4715;51.660;7.082;2023-02-14T14:21:15;6.10;;;5.53;;
5085;SDS011;4715;51.660;7.082;2023-02-14T14:23:44;6.90;;;6.13;;
5085;SDS011;4715;51.660;7.082;2023-02-14T14:26:29;8.40;;;6.00;;
5085;SDS011;4715;51.660;7.082;2023-02-14T14:28:55;5.87;;;5.07;;
5085;SDS011;4715;51.660;7.082;2023-02-14T14:31:18;7.30;;;5.70;;
5085;SDS011;4715;51.660;7.082;2023-02-14T14:33:40;6.53;;;5.00;;
5085;SDS011;4715;51.660;7.082;2023-02-14T14:36:03;5.57;;;5.07;;
5085;SDS011;4715;51.660;7.082;2023-02-14T14:38:29;5.17;;;4.50;;
5085;SDS011;4715;51.660;7.082;2023-02-14T14:40:53;5.70;;;5.10;;
5085;SDS011;4715;51.660;7.082;2023-02-14T14:43:17;6.30;;;5.27;;
5085;SDS011;4715;51.660;7.082;2023-02-14T14:45:45;7.33;;;6.40;;
5085;SDS011;4715;51.660;7.082;2023-02-14T14:48:12;8.40;;;6.10;;
5085;SDS011;4715;51.660;7.082;2023-02-14T14:50:38;11.80;;;7.63;;
5085;SDS011;4715;51.660;7.082;2023-02-14T14:53:05;5.93;;;5.33;;
5085;SDS011;4715;51.660;7.082;2023-02-14T14:55:32;8.43;;;5.30;;
5085;SDS011;4715;51.660;7.082;2023-02-14T14:57:58;5.87;;;5.30;;
5085;SDS011;4715;51.660;7.082;2023-02-14T15:00:23;4.80;;;4.40;;
5085;SDS011;4715;51.660;7.082;2023-02-14T15:02:54;5.30;;;4.80;;
5085;SDS011;4715;51.660;7.082;2023-02-14T15:05:22;8.30;;;4.60;;
5085;SDS011;4715;51.660;7.082;2023-02-14T15:07:47;5.37;;;4.17;;
5085;SDS011;4715;51.660;7.082;2023-02-14T15:10:19;5.87;;;5.03;;
5085;SDS011;4715;51.660;7.082;2023-02-14T15:12:44;4.90;;;4.40;;
5085;SDS011;4715;51.660;7.082;2023-02-14T15:15:24;4.60;;;4.23;;
5085;SDS011;4715;51.660;7.082;2023-02-14T15:17:45;4.63;;;4.20;;
5085;SDS011;4715;51.660;7.082;2023-02-14T15:20:08;4.30;;;4.00;;
5085;SDS011;4715;51.660;7.082;2023-02-14T15:22:39;3.70;;;3.40;;
5085;SDS011;4715;51.660;7.082;2023-02-14T15:25:06;4.37;;;3.97;;